Terminal Aerodrome Forecast
Issued by NWS

Home | Current Version | Previous Version | Text Only | Print | Product List | Glossary On
Versions: 1 2 3 4 5 6 7 8 9 10 11 12 13 14
000
FTUS44 KLZK 180900 AAA
TAFLLQ
TAF AMD
KLLQ 180929Z 1809/1906 07008KT 6SM -RA BR SCT005 OVC050
      TEMPO 1809/1813 5SM -RA BKN005 OVC035
     FM181400 08004KT 5SM -DZ OVC018
     FM181800 11003KT P6SM OVC018
     FM182000 08003KT P6SM OVC025=

USA.gov is the U.S. government's official web portal to all federal, state and local government web resources and services.